sensor_id;sensor_type;location;lat;lon;timestamp;temperature;humidity
33382;DHT22;21342;48.786;9.166;2022-09-09T00:01:22;17.90;99.90
33382;DHT22;21342;48.786;9.166;2022-09-09T00:03:55;17.90;99.90
33382;DHT22;21342;48.786;9.166;2022-09-09T00:06:28;17.80;99.90
33382;DHT22;21342;48.786;9.166;2022-09-09T00:09:02;17.90;99.90
33382;DHT22;21342;48.786;9.166;2022-09-09T00:11:36;18.30;99.90
33382;DHT22;21342;48.786;9.166;2022-09-09T00:14:17;18.30;99.90
33382;DHT22;21342;48.786;9.166;2022-09-09T00:16:50;18.30;99.90
33382;DHT22;21342;48.786;9.166;2022-09-09T00:19:22;18.30;99.90
33382;DHT22;21342;48.786;9.166;2022-09-09T00:21:54;18.50;99.90
33382;DHT22;21342;48.786;9.166;2022-09-09T00:24:27;18.60;99.90
33382;DHT22;21342;48.786;9.166;2022-09-09T00:27:01;18.60;99.90
33382;DHT22;21342;48.786;9.166;2022-09-09T00:29:38;18.50;99.90
33382;DHT22;21342;48.786;9.166;2022-09-09T00:32:14;18.50;99.90
33382;DHT22;21342;48.786;9.166;2022-09-09T00:34:47;18.50;99.90
33382;DHT22;21342;48.786;9.166;2022-09-09T00:37:15;18.70;99.90
33382;DHT22;21342;48.786;9.166;2022-09-09T00:39:45;18.80;99.90
33382;DHT22;21342;48.786;9.166;2022-09-09T00:42:15;18.70;99.90
33382;DHT22;21342;48.786;9.166;2022-09-09T00:44:53;18.70;99.90
33382;DHT22;21342;48.786;9.166;2022-09-09T00:50:27;18.60;99.90
33382;DHT22;21342;48.786;9.166;2022-09-09T00:53:02;18.50;99.90
33382;DHT22;21342;48.786;9.166;2022-09-09T00:55:41;18.40;99.90
33382;DHT22;21342;48.786;9.166;2022-09-09T00:58:10;18.40;99.90
33382;DHT22;21342;48.786;9.166;2022-09-09T01:00:42;18.30;99.90
33382;DHT22;21342;48.786;9.166;2022-09-09T01:03:22;18.20;99.90
33382;DHT22;21342;48.786;9.166;2022-09-09T01:06:00;18.10;99.90
33382;DHT22;21342;48.786;9.166;2022-09-09T01:08:39;18.20;99.90
33382;DHT22;21342;48.786;9.166;2022-09-09T01:11:12;18.10;99.90
33382;DHT22;21342;48.786;9.166;2022-09-09T01:13:45;18.30;99.90
33382;DHT22;21342;48.786;9.166;2022-09-09T01:16:14;18.40;99.90
33382;DHT22;21342;48.786;9.166;2022-09-09T01:18:44;18.40;99.90
33382;DHT22;21342;48.786;9.166;2022-09-09T01:21:19;18.30;99.90
33382;DHT22;21342;48.786;9.166;2022-09-09T01:24:12;18.20;99.90
33382;DHT22;21342;48.786;9.166;2022-09-09T01:26:42;18.30;99.90
33382;DHT22;21342;48.786;9.166;2022-09-09T01:29:11;18.40;99.90
33382;DHT22;21342;48.786;9.166;2022-09-09T01:31:41;18.30;99.90
33382;DHT22;21342;48.786;9.166;2022-09-09T01:34:11;18.50;99.90
33382;DHT22;21342;48.786;9.166;2022-09-09T01:36:42;18.90;99.90
33382;DHT22;21342;48.786;9.166;2022-09-09T01:39:11;19.10;99.90
33382;DHT22;21342;48.786;9.166;2022-09-09T01:41:40;19.50;99.90
33382;DHT22;21342;48.786;9.166;2022-09-09T01:44:08;19.30;99.90
33382;DHT22;21342;48.786;9.166;2022-09-09T01:46:35;19.10;99.90
33382;DHT22;21342;48.786;9.166;2022-09-09T01:49:04;19.10;99.90
33382;DHT22;21342;48.786;9.166;2022-09-09T01:51:33;18.80;99.90
33382;DHT22;21342;48.786;9.166;2022-09-09T01:54:01;19.00;99.90
33382;DHT22;21342;48.786;9.166;2022-09-09T01:56:39;19.00;99.90
33382;DHT22;21342;48.786;9.166;2022-09-09T01:59:19;18.90;99.90
33382;DHT22;21342;48.786;9.166;2022-09-09T02:01:58;18.60;99.90
33382;DHT22;21342;48.786;9.166;2022-09-09T02:04:36;18.60;99.90
33382;DHT22;21342;48.786;9.166;2022-09-09T02:07:12;18.50;99.90
33382;DHT22;21342;48.786;9.166;2022-09-09T02:09:43;18.40;99.90
33382;DHT22;21342;48.786;9.166;2022-09-09T02:12:14;18.50;99.90
33382;DHT22;21342;48.786;9.166;2022-09-09T02:14:48;18.50;99.90
33382;DHT22;21342;48.786;9.166;2022-09-09T02:17:21;18.60;99.90
33382;DHT22;21342;48.786;9.166;2022-09-09T02:19:53;18.80;99.90
33382;DHT22;21342;48.786;9.166;2022-09-09T02:22:24;18.80;99.90
33382;DHT22;21342;48.786;9.166;2022-09-09T02:24:56;18.50;99.90
33382;DHT22;21342;48.786;9.166;2022-09-09T02:27:24;18.50;99.90
33382;DHT22;21342;48.786;9.166;2022-09-09T02:29:53;18.30;99.90
33382;DHT22;21342;48.786;9.166;2022-09-09T02:32:24;18.10;99.90
33382;DHT22;21342;48.786;9.166;2022-09-09T02:34:53;18.10;99.90
33382;DHT22;21342;48.786;9.166;2022-09-09T02:37:26;18.10;99.90
33382;DHT22;21342;48.786;9.166;2022-09-09T02:39:55;18.30;99.90
33382;DHT22;21342;48.786;9.166;2022-09-09T02:42:22;18.40;99.90
33382;DHT22;21342;48.786;9.166;2022-09-09T02:44:49;18.30;99.90
33382;DHT22;21342;48.786;9.166;2022-09-09T02:47:25;18.10;99.90
33382;DHT22;21342;48.786;9.166;2022-09-09T02:50:01;18.20;99.90
33382;DHT22;21342;48.786;9.166;2022-09-09T02:52:36;18.00;99.90
33382;DHT22;21342;48.786;9.166;2022-09-09T02:55:10;17.70;99.90
33382;DHT22;21342;48.786;9.166;2022-09-09T02:57:40;17.60;99.90
33382;DHT22;21342;48.786;9.166;2022-09-09T03:00:08;17.70;99.90
33382;DHT22;21342;48.786;9.166;2022-09-09T03:02:38;17.60;99.90
33382;DHT22;21342;48.786;9.166;2022-09-09T03:05:06;17.40;99.90
33382;DHT22;21342;48.786;9.166;2022-09-09T03:07:37;17.50;99.90
33382;DHT22;21342;48.786;9.166;2022-09-09T03:10:06;17.40;99.90
33382;DHT22;21342;48.786;9.166;2022-09-09T03:12:33;17.20;99.90
33382;DHT22;21342;48.786;9.166;2022-09-09T03:15:01;17.40;99.90
33382;DHT22;21342;48.786;9.166;2022-09-09T03:17:28;17.60;99.90
33382;DHT22;21342;48.786;9.166;2022-09-09T03:19:56;17.50;99.90
33382;DHT22;21342;48.786;9.166;2022-09-09T03:22:24;17.50;99.90
33382;DHT22;21342;48.786;9.166;2022-09-09T03:24:52;17.40;99.90
33382;DHT22;21342;48.786;9.166;2022-09-09T03:27:19;17.40;99.90
33382;DHT22;21342;48.786;9.166;2022-09-09T03:29:46;17.30;99.90
33382;DHT22;21342;48.786;9.166;2022-09-09T03:32:16;17.30;99.90
33382;DHT22;21342;48.786;9.166;2022-09-09T03:34:44;17.70;99.90
33382;DHT22;21342;48.786;9.166;2022-09-09T03:37:14;17.80;99.90
33382;DHT22;21342;48.786;9.166;2022-09-09T03:39:41;17.70;99.90
33382;DHT22;21342;48.786;9.166;2022-09-09T03:42:08;17.70;99.90
33382;DHT22;21342;48.786;9.166;2022-09-09T03:44:36;17.70;99.90
33382;DHT22;21342;48.786;9.166;2022-09-09T03:47:03;17.90;99.90
33382;DHT22;21342;48.786;9.166;2022-09-09T03:49:32;18.10;99.90
33382;DHT22;21342;48.786;9.166;2022-09-09T03:51:59;18.10;99.90
33382;DHT22;21342;48.786;9.166;2022-09-09T03:54:28;17.90;99.90
33382;DHT22;21342;48.786;9.166;2022-09-09T03:56:55;18.20;99.90
33382;DHT22;21342;48.786;9.166;2022-09-09T03:59:23;18.10;99.90
33382;DHT22;21342;48.786;9.166;2022-09-09T04:01:51;18.10;99.90
33382;DHT22;21342;48.786;9.166;2022-09-09T04:04:18;17.80;99.90
33382;DHT22;21342;48.786;9.166;2022-09-09T04:06:46;17.50;99.90
33382;DHT22;21342;48.786;9.166;2022-09-09T04:09:14;17.90;99.90
33382;DHT22;21342;48.786;9.166;2022-09-09T04:11:42;17.70;99.90
33382;DHT22;21342;48.786;9.166;2022-09-09T04:14:09;17.80;99.90
33382;DHT22;21342;48.786;9.166;2022-09-09T04:16:36;17.70;99.90
33382;DHT22;21342;48.786;9.166;2022-09-09T04:19:04;17.70;99.90
33382;DHT22;21342;48.786;9.166;2022-09-09T04:21:32;17.80;99.90
33382;DHT22;21342;48.786;9.166;2022-09-09T04:23:59;18.00;99.90
33382;DHT22;21342;48.786;9.166;2022-09-09T04:26:26;18.00;99.90
33382;DHT22;21342;48.786;9.166;2022-09-09T04:28:55;18.20;99.90
33382;DHT22;21342;48.786;9.166;2022-09-09T04:31:23;18.60;99.90
33382;DHT22;21342;48.786;9.166;2022-09-09T04:33:50;18.50;99.90
33382;DHT22;21342;48.786;9.166;2022-09-09T04:36:18;18.50;99.90
33382;DHT22;21342;48.786;9.166;2022-09-09T04:38:45;18.40;99.90
33382;DHT22;21342;48.786;9.166;2022-09-09T04:41:14;18.30;99.90
33382;DHT22;21342;48.786;9.166;2022-09-09T04:43:42;17.90;99.90
33382;DHT22;21342;48.786;9.166;2022-09-09T04:46:10;17.80;99.90
33382;DHT22;21342;48.786;9.166;2022-09-09T04:48:37;18.20;99.90
33382;DHT22;21342;48.786;9.166;2022-09-09T04:51:06;18.40;99.90
33382;DHT22;21342;48.786;9.166;2022-09-09T04:53:34;18.10;99.90
33382;DHT22;21342;48.786;9.166;2022-09-09T04:56:02;17.50;99.90
33382;DHT22;21342;48.786;9.166;2022-09-09T04:58:30;17.10;99.90
33382;DHT22;21342;48.786;9.166;2022-09-09T05:01:03;17.00;99.90
33382;DHT22;21342;48.786;9.166;2022-09-09T05:03:32;17.00;99.90
33382;DHT22;21342;48.786;9.166;2022-09-09T05:06:07;16.80;99.90
33382;DHT22;21342;48.786;9.166;2022-09-09T05:08:35;16.70;99.90
33382;DHT22;21342;48.786;9.166;2022-09-09T05:11:03;16.90;99.90
33382;DHT22;21342;48.786;9.166;2022-09-09T05:13:30;17.40;99.90
33382;DHT22;21342;48.786;9.166;2022-09-09T05:15:58;17.50;99.90
33382;DHT22;21342;48.786;9.166;2022-09-09T05:18:25;17.70;99.90
33382;DHT22;21342;48.786;9.166;2022-09-09T05:20:58;17.40;99.90
33382;DHT22;21342;48.786;9.166;2022-09-09T05:23:25;17.40;99.90
33382;DHT22;21342;48.786;9.166;2022-09-09T05:25:57;17.60;99.90
33382;DHT22;21342;48.786;9.166;2022-09-09T05:28:24;17.80;99.90
33382;DHT22;21342;48.786;9.166;2022-09-09T05:30:56;17.80;99.90
33382;DHT22;21342;48.786;9.166;2022-09-09T05:33:24;17.80;99.90
33382;DHT22;21342;48.786;9.166;2022-09-09T05:35:58;17.80;99.90
33382;DHT22;21342;48.786;9.166;2022-09-09T05:38:25;17.90;99.90
33382;DHT22;21342;48.786;9.166;2022-09-09T05:40:53;17.60;99.90
33382;DHT22;21342;48.786;9.166;2022-09-09T05:43:21;17.60;99.90
33382;DHT22;21342;48.786;9.166;2022-09-09T05:45:58;17.70;99.90
33382;DHT22;21342;48.786;9.166;2022-09-09T05:48:28;17.80;99.90
33382;DHT22;21342;48.786;9.166;2022-09-09T05:50:57;18.20;99.90
33382;DHT22;21342;48.786;9.166;2022-09-09T05:53:25;18.40;99.90
33382;DHT22;21342;48.786;9.166;2022-09-09T05:55:59;18.70;99.90
33382;DHT22;21342;48.786;9.166;2022-09-09T05:58:27;18.50;99.90
33382;DHT22;21342;48.786;9.166;2022-09-09T06:01:01;18.70;99.90
33382;DHT22;21342;48.786;9.166;2022-09-09T06:03:28;18.60;99.90
33382;DHT22;21342;48.786;9.166;2022-09-09T06:06:00;18.50;99.90
33382;DHT22;21342;48.786;9.166;2022-09-09T06:08:28;18.60;99.90
33382;DHT22;21342;48.786;9.166;2022-09-09T06:11:02;18.40;99.90
33382;DHT22;21342;48.786;9.166;2022-09-09T06:13:30;18.30;99.90
33382;DHT22;21342;48.786;9.166;2022-09-09T06:15:57;18.10;99.90
33382;DHT22;21342;48.786;9.166;2022-09-09T06:18:25;18.30;99.90
33382;DHT22;21342;48.786;9.166;2022-09-09T06:20:56;18.00;99.90
33382;DHT22;21342;48.786;9.166;2022-09-09T06:23:26;17.90;99.90
33382;DHT22;21342;48.786;9.166;2022-09-09T06:26:01;18.10;99.90
33382;DHT22;21342;48.786;9.166;2022-09-09T06:28:28;18.00;99.90
33382;DHT22;21342;48.786;9.166;2022-09-09T06:30:58;18.50;99.90
33382;DHT22;21342;48.786;9.166;2022-09-09T06:33:26;18.60;99.90
33382;DHT22;21342;48.786;9.166;2022-09-09T06:35:54;18.70;99.90
33382;DHT22;21342;48.786;9.166;2022-09-09T06:38:23;18.70;99.90
33382;DHT22;21342;48.786;9.166;2022-09-09T06:40:53;18.80;99.90
33382;DHT22;21342;48.786;9.166;2022-09-09T06:43:21;18.70;99.90
33382;DHT22;21342;48.786;9.166;2022-09-09T06:45:55;19.00;99.90
33382;DHT22;21342;48.786;9.166;2022-09-09T06:48:23;19.00;99.90
33382;DHT22;21342;48.786;9.166;2022-09-09T06:50:51;19.10;99.90
33382;DHT22;21342;48.786;9.166;2022-09-09T06:53:26;18.90;99.90
33382;DHT22;21342;48.786;9.166;2022-09-09T06:55:55;19.40;99.90
33382;DHT22;21342;48.786;9.166;2022-09-09T06:58:22;19.60;99.90
33382;DHT22;21342;48.786;9.166;2022-09-09T07:00:49;19.50;99.90
33382;DHT22;21342;48.786;9.166;2022-09-09T07:03:16;19.20;99.90
33382;DHT22;21342;48.786;9.166;2022-09-09T07:05:43;18.80;99.90
33382;DHT22;21342;48.786;9.166;2022-09-09T07:08:20;18.80;99.90
33382;DHT22;21342;48.786;9.166;2022-09-09T07:10:47;18.80;99.90
33382;DHT22;21342;48.786;9.166;2022-09-09T07:13:16;18.90;99.90
33382;DHT22;21342;48.786;9.166;2022-09-09T07:15:46;19.50;99.90
33382;DHT22;21342;48.786;9.166;2022-09-09T07:18:13;19.30;99.90
33382;DHT22;21342;48.786;9.166;2022-09-09T07:20:41;19.10;99.90
33382;DHT22;21342;48.786;9.166;2022-09-09T07:23:08;19.40;99.90
33382;DHT22;21342;48.786;9.166;2022-09-09T07:25:35;19.30;99.90
33382;DHT22;21342;48.786;9.166;2022-09-09T07:28:02;19.50;99.90
33382;DHT22;21342;48.786;9.166;2022-09-09T07:30:31;19.50;99.90
33382;DHT22;21342;48.786;9.166;2022-09-09T07:32:58;19.60;99.90
33382;DHT22;21342;48.786;9.166;2022-09-09T07:35:25;19.80;99.90
33382;DHT22;21342;48.786;9.166;2022-09-09T07:37:52;19.90;99.90
33382;DHT22;21342;48.786;9.166;2022-09-09T07:40:20;20.40;99.90
33382;DHT22;21342;48.786;9.166;2022-09-09T07:42:47;20.30;99.90
33382;DHT22;21342;48.786;9.166;2022-09-09T07:45:15;19.90;99.90
33382;DHT22;21342;48.786;9.166;2022-09-09T07:47:43;19.90;99.90
33382;DHT22;21342;48.786;9.166;2022-09-09T07:50:10;20.00;99.90
33382;DHT22;21342;48.786;9.166;2022-09-09T07:52:38;20.10;99.90
33382;DHT22;21342;48.786;9.166;2022-09-09T07:55:05;19.90;99.90
33382;DHT22;21342;48.786;9.166;2022-09-09T07:57:32;19.70;99.90
33382;DHT22;21342;48.786;9.166;2022-09-09T08:00:00;20.20;99.90
33382;DHT22;21342;48.786;9.166;2022-09-09T08:02:28;20.20;99.90
33382;DHT22;21342;48.786;9.166;2022-09-09T08:04:56;20.20;99.90
33382;DHT22;21342;48.786;9.166;2022-09-09T08:07:23;20.20;99.90
33382;DHT22;21342;48.786;9.166;2022-09-09T08:09:50;20.40;99.90
33382;DHT22;21342;48.786;9.166;2022-09-09T08:12:18;20.70;99.90
33382;DHT22;21342;48.786;9.166;2022-09-09T08:14:45;20.60;99.90
33382;DHT22;21342;48.786;9.166;2022-09-09T08:17:13;20.50;99.90
33382;DHT22;21342;48.786;9.166;2022-09-09T08:19:40;20.50;99.90
33382;DHT22;21342;48.786;9.166;2022-09-09T08:22:08;20.50;99.90
33382;DHT22;21342;48.786;9.166;2022-09-09T08:24:36;20.40;99.90
33382;DHT22;21342;48.786;9.166;2022-09-09T08:27:03;20.40;99.90
33382;DHT22;21342;48.786;9.166;2022-09-09T08:29:30;20.60;99.90
33382;DHT22;21342;48.786;9.166;2022-09-09T08:31:59;21.00;99.90
33382;DHT22;21342;48.786;9.166;2022-09-09T08:34:27;21.10;99.90
33382;DHT22;21342;48.786;9.166;2022-09-09T08:36:56;21.10;99.90
33382;DHT22;21342;48.786;9.166;2022-09-09T08:39:24;21.10;99.90
33382;DHT22;21342;48.786;9.166;2022-09-09T08:42:16;21.10;99.90
33382;DHT22;21342;48.786;9.166;2022-09-09T08:45:04;21.30;99.90
33382;DHT22;21342;48.786;9.166;2022-09-09T08:47:42;21.20;99.90
33382;DHT22;21342;48.786;9.166;2022-09-09T08:50:21;21.20;99.90
33382;DHT22;21342;48.786;9.166;2022-09-09T08:52:54;21.40;99.90
33382;DHT22;21342;48.786;9.166;2022-09-09T08:55:29;21.70;99.90
33382;DHT22;21342;48.786;9.166;2022-09-09T08:58:11;21.90;99.90
33382;DHT22;21342;48.786;9.166;2022-09-09T09:00:48;22.50;99.90
33382;DHT22;21342;48.786;9.166;2022-09-09T09:03:25;23.10;99.90
33382;DHT22;21342;48.786;9.166;2022-09-09T09:06:01;23.50;99.90
33382;DHT22;21342;48.786;9.166;2022-09-09T09:08:38;24.50;99.90
33382;DHT22;21342;48.786;9.166;2022-09-09T09:11:09;23.90;98.30
33382;DHT22;21342;48.786;9.166;2022-09-09T09:13:43;23.20;99.10
33382;DHT22;21342;48.786;9.166;2022-09-09T09:16:19;22.80;99.90
33382;DHT22;21342;48.786;9.166;2022-09-09T09:18:50;22.50;99.90
33382;DHT22;21342;48.786;9.166;2022-09-09T09:21:32;22.30;99.90
33382;DHT22;21342;48.786;9.166;2022-09-09T09:24:01;21.90;99.90
33382;DHT22;21342;48.786;9.166;2022-09-09T09:26:32;21.40;99.90
33382;DHT22;21342;48.786;9.166;2022-09-09T09:29:04;21.10;99.90
33382;DHT22;21342;48.786;9.166;2022-09-09T09:31:35;21.10;99.90
33382;DHT22;21342;48.786;9.166;2022-09-09T09:34:02;20.80;99.90
33382;DHT22;21342;48.786;9.166;2022-09-09T09:36:35;20.20;99.90
33382;DHT22;21342;48.786;9.166;2022-09-09T09:39:04;19.80;99.90
33382;DHT22;21342;48.786;9.166;2022-09-09T09:41:36;19.90;99.90
33382;DHT22;21342;48.786;9.166;2022-09-09T09:44:05;20.60;99.90
33382;DHT22;21342;48.786;9.166;2022-09-09T09:46:33;21.90;99.90
33382;DHT22;21342;48.786;9.166;2022-09-09T09:49:01;22.80;99.90
33382;DHT22;21342;48.786;9.166;2022-09-09T09:51:33;23.40;98.10
33382;DHT22;21342;48.786;9.166;2022-09-09T09:54:13;24.50;99.10
33382;DHT22;21342;48.786;9.166;2022-09-09T09:56:43;24.20;97.10
33382;DHT22;21342;48.786;9.166;2022-09-09T09:59:21;24.30;96.20
33382;DHT22;21342;48.786;9.166;2022-09-09T10:01:48;25.30;95.60
33382;DHT22;21342;48.786;9.166;2022-09-09T10:04:17;25.40;94.80
33382;DHT22;21342;48.786;9.166;2022-09-09T10:06:46;26.30;94.70
33382;DHT22;21342;48.786;9.166;2022-09-09T10:09:26;25.60;94.40
33382;DHT22;21342;48.786;9.166;2022-09-09T10:12:02;26.40;94.30
33382;DHT22;21342;48.786;9.166;2022-09-09T10:14:37;25.70;93.80
33382;DHT22;21342;48.786;9.166;2022-09-09T10:17:18;26.00;94.40
33382;DHT22;21342;48.786;9.166;2022-09-09T10:19:57;26.90;92.40
33382;DHT22;21342;48.786;9.166;2022-09-09T10:22:32;27.00;92.50
33382;DHT22;21342;48.786;9.166;2022-09-09T10:28:40;26.40;92.90
33382;DHT22;21342;48.786;9.166;2022-09-09T10:33:50;27.20;91.10
33382;DHT22;21342;48.786;9.166;2022-09-09T10:36:20;26.30;92.10
33382;DHT22;21342;48.786;9.166;2022-09-09T10:38:52;25.40;92.50
33382;DHT22;21342;48.786;9.166;2022-09-09T10:41:25;25.10;94.00
33382;DHT22;21342;48.786;9.166;2022-09-09T10:44:18;25.30;94.10
33382;DHT22;21342;48.786;9.166;2022-09-09T10:47:11;25.20;94.70
33382;DHT22;21342;48.786;9.166;2022-09-09T10:49:56;24.70;95.20
33382;DHT22;21342;48.786;9.166;2022-09-09T10:52:32;24.50;94.80
33382;DHT22;21342;48.786;9.166;2022-09-09T10:55:09;24.70;95.40
33382;DHT22;21342;48.786;9.166;2022-09-09T10:57:39;25.60;94.20
33382;DHT22;21342;48.786;9.166;2022-09-09T11:00:18;25.90;94.90
33382;DHT22;21342;48.786;9.166;2022-09-09T11:02:48;25.20;96.10
33382;DHT22;21342;48.786;9.166;2022-09-09T11:05:20;25.90;94.90
33382;DHT22;21342;48.786;9.166;2022-09-09T11:07:49;27.10;93.70
33382;DHT22;21342;48.786;9.166;2022-09-09T11:10:24;26.50;93.20
33382;DHT22;21342;48.786;9.166;2022-09-09T11:12:57;26.40;93.40
33382;DHT22;21342;48.786;9.166;2022-09-09T11:15:31;26.20;93.40
33382;DHT22;21342;48.786;9.166;2022-09-09T11:18:04;25.40;92.70
33382;DHT22;21342;48.786;9.166;2022-09-09T11:20:33;24.60;92.70
33382;DHT22;21342;48.786;9.166;2022-09-09T11:23:03;24.00;93.70
33382;DHT22;21342;48.786;9.166;2022-09-09T11:25:35;23.10;92.90
33382;DHT22;21342;48.786;9.166;2022-09-09T11:31:07;22.50;92.20
33382;DHT22;21342;48.786;9.166;2022-09-09T11:34:06;22.40;93.60
33382;DHT22;21342;48.786;9.166;2022-09-09T11:40:14;22.60;94.60
33382;DHT22;21342;48.786;9.166;2022-09-09T11:45:19;22.30;94.40
33382;DHT22;21342;48.786;9.166;2022-09-09T11:47:54;22.50;95.20
33382;DHT22;21342;48.786;9.166;2022-09-09T11:50:32;22.00;95.20
33382;DHT22;21342;48.786;9.166;2022-09-09T11:53:19;22.00;95.60
33382;DHT22;21342;48.786;9.166;2022-09-09T11:56:10;22.20;95.50
33382;DHT22;21342;48.786;9.166;2022-09-09T11:58:44;22.40;95.40
33382;DHT22;21342;48.786;9.166;2022-09-09T12:01:34;22.00;95.30
33382;DHT22;21342;48.786;9.166;2022-09-09T12:04:14;22.00;95.30
33382;DHT22;21342;48.786;9.166;2022-09-09T12:06:44;21.90;94.80
33382;DHT22;21342;48.786;9.166;2022-09-09T12:09:22;22.50;95.50
33382;DHT22;21342;48.786;9.166;2022-09-09T12:11:50;23.00;94.70
33382;DHT22;21342;48.786;9.166;2022-09-09T12:14:23;23.40;93.60
33382;DHT22;21342;48.786;9.166;2022-09-09T12:17:10;23.70;93.50
33382;DHT22;21342;48.786;9.166;2022-09-09T12:19:46;24.10;93.10
33382;DHT22;21342;48.786;9.166;2022-09-09T12:22:23;24.00;91.60
33382;DHT22;21342;48.786;9.166;2022-09-09T12:24:59;24.50;91.60
33382;DHT22;21342;48.786;9.166;2022-09-09T12:27:34;24.90;90.80
33382;DHT22;21342;48.786;9.166;2022-09-09T12:30:09;25.00;90.80
33382;DHT22;21342;48.786;9.166;2022-09-09T12:32:37;24.80;90.80
33382;DHT22;21342;48.786;9.166;2022-09-09T12:35:11;24.30;89.90
33382;DHT22;21342;48.786;9.166;2022-09-09T12:37:41;24.90;89.30
33382;DHT22;21342;48.786;9.166;2022-09-09T12:40:20;25.50;88.60
33382;DHT22;21342;48.786;9.166;2022-09-09T12:42:47;25.00;86.80
33382;DHT22;21342;48.786;9.166;2022-09-09T12:45:17;24.80;88.20
33382;DHT22;21342;48.786;9.166;2022-09-09T12:47:47;24.70;87.90
33382;DHT22;21342;48.786;9.166;2022-09-09T12:50:20;24.00;88.40
33382;DHT22;21342;48.786;9.166;2022-09-09T12:52:50;23.40;90.00
33382;DHT22;21342;48.786;9.166;2022-09-09T12:55:20;23.60;90.60
33382;DHT22;21342;48.786;9.166;2022-09-09T12:57:51;23.70;90.40
33382;DHT22;21342;48.786;9.166;2022-09-09T13:00:20;23.80;90.70
33382;DHT22;21342;48.786;9.166;2022-09-09T13:02:53;24.00;90.70
33382;DHT22;21342;48.786;9.166;2022-09-09T13:05:25;24.30;90.00
33382;DHT22;21342;48.786;9.166;2022-09-09T13:08:00;24.70;90.30
33382;DHT22;21342;48.786;9.166;2022-09-09T13:10:31;25.10;90.10
33382;DHT22;21342;48.786;9.166;2022-09-09T13:12:59;25.10;87.80
33382;DHT22;21342;48.786;9.166;2022-09-09T13:15:27;24.80;88.50
33382;DHT22;21342;48.786;9.166;2022-09-09T13:17:57;24.00;88.80
33382;DHT22;21342;48.786;9.166;2022-09-09T13:20:28;23.70;90.30
33382;DHT22;21342;48.786;9.166;2022-09-09T13:22:56;23.50;90.80
33382;DHT22;21342;48.786;9.166;2022-09-09T13:25:26;23.20;90.90
33382;DHT22;21342;48.786;9.166;2022-09-09T13:27:58;23.80;91.10
33382;DHT22;21342;48.786;9.166;2022-09-09T13:30:28;24.40;90.90
33382;DHT22;21342;48.786;9.166;2022-09-09T13:33:01;24.30;91.00
33382;DHT22;21342;48.786;9.166;2022-09-09T13:35:29;24.50;90.40
33382;DHT22;21342;48.786;9.166;2022-09-09T13:37:57;25.20;90.20
33382;DHT22;21342;48.786;9.166;2022-09-09T13:40:25;25.10;90.00
33382;DHT22;21342;48.786;9.166;2022-09-09T13:42:55;24.90;87.80
33382;DHT22;21342;48.786;9.166;2022-09-09T13:45:25;24.80;89.00
33382;DHT22;21342;48.786;9.166;2022-09-09T13:47:53;25.20;89.60
33382;DHT22;21342;48.786;9.166;2022-09-09T13:50:22;25.10;88.50
33382;DHT22;21342;48.786;9.166;2022-09-09T13:52:52;24.90;88.50
33382;DHT22;21342;48.786;9.166;2022-09-09T13:55:21;24.10;85.60
33382;DHT22;21342;48.786;9.166;2022-09-09T13:57:52;24.40;85.70
33382;DHT22;21342;48.786;9.166;2022-09-09T14:00:20;24.50;86.30
33382;DHT22;21342;48.786;9.166;2022-09-09T14:02:48;24.50;87.20
33382;DHT22;21342;48.786;9.166;2022-09-09T14:05:16;24.20;85.20
33382;DHT22;21342;48.786;9.166;2022-09-09T14:07:44;24.10;86.00
33382;DHT22;21342;48.786;9.166;2022-09-09T14:10:12;24.30;86.80
33382;DHT22;21342;48.786;9.166;2022-09-09T14:12:40;23.90;84.40
33382;DHT22;21342;48.786;9.166;2022-09-09T14:15:10;24.00;86.70
33382;DHT22;21342;48.786;9.166;2022-09-09T14:17:37;23.80;85.10
33382;DHT22;21342;48.786;9.166;2022-09-09T14:20:06;24.10;86.30
33382;DHT22;21342;48.786;9.166;2022-09-09T14:22:35;24.10;83.90
33382;DHT22;21342;48.786;9.166;2022-09-09T14:25:03;24.10;85.60
33382;DHT22;21342;48.786;9.166;2022-09-09T14:27:32;24.10;85.30
33382;DHT22;21342;48.786;9.166;2022-09-09T14:29:59;23.80;86.30
33382;DHT22;21342;48.786;9.166;2022-09-09T14:32:27;23.50;85.60
33382;DHT22;21342;48.786;9.166;2022-09-09T14:34:54;23.40;85.40
33382;DHT22;21342;48.786;9.166;2022-09-09T14:37:21;23.10;84.30
33382;DHT22;21342;48.786;9.166;2022-09-09T14:39:49;23.40;86.20
33382;DHT22;21342;48.786;9.166;2022-09-09T14:42:17;23.70;85.80
33382;DHT22;21342;48.786;9.166;2022-09-09T14:44:45;23.60;84.20
33382;DHT22;21342;48.786;9.166;2022-09-09T14:47:13;23.40;84.70
33382;DHT22;21342;48.786;9.166;2022-09-09T14:49:40;23.40;84.40
33382;DHT22;21342;48.786;9.166;2022-09-09T14:52:07;23.30;84.00
33382;DHT22;21342;48.786;9.166;2022-09-09T14:54:34;23.30;83.50
33382;DHT22;21342;48.786;9.166;2022-09-09T14:57:02;23.40;85.30
33382;DHT22;21342;48.786;9.166;2022-09-09T14:59:29;23.30;84.10
33382;DHT22;21342;48.786;9.166;2022-09-09T15:01:57;23.10;82.80
33382;DHT22;21342;48.786;9.166;2022-09-09T15:04:29;23.30;83.80
33382;DHT22;21342;48.786;9.166;2022-09-09T15:06:57;23.50;83.40
33382;DHT22;21342;48.786;9.166;2022-09-09T15:09:24;23.70;84.40
33382;DHT22;21342;48.786;9.166;2022-09-09T15:11:51;23.50;82.90
33382;DHT22;21342;48.786;9.166;2022-09-09T15:14:18;23.20;82.40
33382;DHT22;21342;48.786;9.166;2022-09-09T15:16:46;23.10;83.60
33382;DHT22;21342;48.786;9.166;2022-09-09T15:19:15;23.10;84.80
33382;DHT22;21342;48.786;9.166;2022-09-09T15:21:42;22.90;84.90
33382;DHT22;21342;48.786;9.166;2022-09-09T15:24:09;22.70;84.80
33382;DHT22;21342;48.786;9.166;2022-09-09T15:26:37;22.70;85.90
33382;DHT22;21342;48.786;9.166;2022-09-09T15:29:05;22.60;84.60
33382;DHT22;21342;48.786;9.166;2022-09-09T15:31:33;22.80;85.50
33382;DHT22;21342;48.786;9.166;2022-09-09T15:34:01;22.90;85.90
33382;DHT22;21342;48.786;9.166;2022-09-09T15:36:32;22.70;85.20
33382;DHT22;21342;48.786;9.166;2022-09-09T15:39:00;22.60;85.60
33382;DHT22;21342;48.786;9.166;2022-09-09T15:41:28;22.50;85.80
33382;DHT22;21342;48.786;9.166;2022-09-09T15:43:57;22.50;86.10
33382;DHT22;21342;48.786;9.166;2022-09-09T15:46:30;22.50;88.00
33382;DHT22;21342;48.786;9.166;2022-09-09T15:49:02;22.50;87.20
33382;DHT22;21342;48.786;9.166;2022-09-09T15:51:32;22.50;87.70
33382;DHT22;21342;48.786;9.166;2022-09-09T15:54:00;22.60;88.30
33382;DHT22;21342;48.786;9.166;2022-09-09T15:56:28;22.50;86.90
33382;DHT22;21342;48.786;9.166;2022-09-09T15:58:57;22.50;87.30
33382;DHT22;21342;48.786;9.166;2022-09-09T16:01:25;22.40;87.10
33382;DHT22;21342;48.786;9.166;2022-09-09T16:03:53;22.40;87.60
33382;DHT22;21342;48.786;9.166;2022-09-09T16:06:22;22.30;86.20
33382;DHT22;21342;48.786;9.166;2022-09-09T16:08:52;22.30;86.70
33382;DHT22;21342;48.786;9.166;2022-09-09T16:11:21;22.40;87.90